Time,TemperatureF,DewpointF,PressureIn,WindDirection,WindDirectionDegrees,WindSpeedMPH,WindSpeedGustMPH,Humidity,HourlyPrecipIn,Conditions,Clouds,dailyrainin,SoftwareType,DateUTC
2013-10-08 00:00:00,44.0,42.4,30.08,North,352,1.0,3.0,94,0.00,,,0.00,Wunderground v.1.15,2013-10-08 04:00:00,
2013-10-08 00:01:00,43.9,42.3,30.08,North,349,0.0,1.0,94,0.00,,,0.00,Wunderground v.1.15,2013-10-08 04:01:00,
2013-10-08 00:02:00,43.9,42.3,30.08,NNW,328,0.0,1.0,94,0.00,,,0.00,Wunderground v.1.15,2013-10-08 04:02:00,
2013-10-08 00:05:00,43.9,42.3,30.08,North,358,1.0,2.0,94,0.00,,,0.00,Wunderground v.1.15,2013-10-08 04:05:00,
2013-10-08 00:06:00,43.9,42.3,30.08,NE,43,0.0,2.0,94,0.00,,,0.00,Wunderground v.1.15,2013-10-08 04:06:00,
2013-10-08 00:09:00,43.9,42.3,30.09,NNE,18,1.0,2.0,94,0.00,,,0.00,Wunderground v.1.15,2013-10-08 04:09:00,
2013-10-08 00:15:00,43.8,42.2,30.09,NNE,32,0.0,1.0,94,0.00,,,0.00,Wunderground v.1.15,2013-10-08 04:15:00,
2013-10-08 00:20:00,43.5,41.9,30.09,NNW,330,0.0,0.0,94,0.00,,,0.00,Wunderground v.1.15,2013-10-08 04:20:00,
2013-10-08 00:26:00,43.3,41.7,30.09,WNW,302,1.0,1.0,94,0.00,,,0.00,Wunderground v.1.15,2013-10-08 04:26:00,
2013-10-08 00:31:00,43.2,41.6,30.09,NW,326,1.0,1.0,94,0.00,,,0.00,Wunderground v.1.15,2013-10-08 04:31:00,
2013-10-08 00:37:00,43.2,41.6,30.09,North,360,1.0,1.0,94,0.00,,,0.00,Wunderground v.1.15,2013-10-08 04:37:00,
2013-10-08 00:42:00,43.1,41.8,30.09,NW,318,0.0,1.0,95,0.00,,,0.00,Wunderground v.1.15,2013-10-08 04:42:00,
2013-10-08 00:49:00,42.8,41.5,30.09,NNW,338,0.0,1.0,95,0.00,,,0.00,Wunderground v.1.15,2013-10-08 04:49:00,
2013-10-08 00:54:00,42.8,41.5,30.09,NNW,328,1.0,1.0,95,0.00,,,0.00,Wunderground v.1.15,2013-10-08 04:54:00,
2013-10-08 00:59:00,42.7,41.4,30.09,NW,318,0.0,1.0,95,0.00,,,0.00,Wunderground v.1.15,2013-10-08 04:59:00,
2013-10-08 01:05:00,42.6,41.3,30.09,NNW,342,0.0,1.0,95,0.00,,,0.00,Wunderground v.1.15,2013-10-08 05:05:00,
2013-10-08 01:10:00,42.5,41.2,30.09,NNW,338,0.0,0.0,95,0.00,,,0.00,Wunderground v.1.15,2013-10-08 05:10:00,
2013-10-08 01:16:00,42.4,41.1,30.09,NNW,330,1.0,2.0,95,0.00,,,0.00,Wunderground v.1.15,2013-10-08 05:16:00,
2013-10-08 01:21:00,42.4,41.1,30.08,NNW,330,1.0,1.0,95,0.00,,,0.00,Wunderground v.1.15,2013-10-08 05:21:00,
2013-10-08 01:27:00,42.5,41.4,30.08,North,356,2.0,4.0,96,0.00,,,0.00,Wunderground v.1.15,2013-10-08 05:27:00,
2013-10-08 01:32:00,42.5,41.4,30.08,North,5,1.0,1.0,96,0.00,,,0.00,Wunderground v.1.15,2013-10-08 05:32:00,
2013-10-08 01:39:00,42.4,41.1,30.08,NNW,332,1.0,1.0,95,0.00,,,0.00,Wunderground v.1.15,2013-10-08 05:39:00,
2013-10-08 01:44:00,42.2,40.9,30.08,NNW,336,1.0,1.0,95,0.00,,,0.00,Wunderground v.1.15,2013-10-08 05:44:00,
2013-10-08 01:50:00,42.1,40.8,30.08,NW,318,0.0,2.0,95,0.00,,,0.00,Wunderground v.1.15,2013-10-08 05:50:00,
2013-10-08 01:55:00,42.0,40.9,30.08,NW,309,0.0,2.0,96,0.00,,,0.00,Wunderground v.1.15,2013-10-08 05:55:00,
2013-10-08 02:01:00,41.9,40.8,30.08,North,360,0.0,0.0,96,0.00,,,0.00,Wunderground v.1.15,2013-10-08 06:01:00,
2013-10-08 02:06:00,41.9,40.8,30.08,NW,323,0.0,1.0,96,0.00,,,0.00,Wunderground v.1.15,2013-10-08 06:06:00,
2013-10-08 02:11:00,41.8,40.7,30.08,NW,324,0.0,0.0,96,0.00,,,0.00,Wunderground v.1.15,2013-10-08 06:11:00,
2013-10-08 02:16:00,41.6,40.5,30.09,NW,326,0.0,1.0,96,0.00,,,0.00,Wunderground v.1.15,2013-10-08 06:16:00,
2013-10-08 02:21:00,41.5,40.4,30.08,NW,326,0.0,0.0,96,0.00,,,0.00,Wunderground v.1.15,2013-10-08 06:21:00,
2013-10-08 02:26:00,41.4,40.3,30.09,NW,326,0.0,0.0,96,0.00,,,0.00,Wunderground v.1.15,2013-10-08 06:26:00,
2013-10-08 02:31:00,41.3,40.2,30.09,NW,326,0.0,0.0,96,0.00,,,0.00,Wunderground v.1.15,2013-10-08 06:31:00,
2013-10-08 02:36:00,41.1,40.0,30.09,NW,326,0.0,0.0,96,0.00,,,0.00,Wunderground v.1.15,2013-10-08 06:36:00,
2013-10-08 02:41:00,41.0,39.9,30.09,NW,326,0.0,0.0,96,0.00,,,0.00,Wunderground v.1.15,2013-10-08 06:41:00,
2013-10-08 02:46:00,41.0,40.2,30.09,NW,323,0.0,0.0,97,0.00,,,0.00,Wunderground v.1.15,2013-10-08 06:46:00,
2013-10-08 02:51:00,41.1,40.3,30.09,WNW,302,0.0,0.0,97,0.00,,,0.00,Wunderground v.1.15,2013-10-08 06:51:00,
2013-10-08 02:56:00,41.3,40.5,30.09,NW,309,1.0,2.0,97,0.00,,,0.00,Wunderground v.1.15,2013-10-08 06:56:00,
2013-10-08 03:01:00,41.4,40.6,30.09,NW,309,0.0,1.0,97,0.00,,,0.00,Wunderground v.1.15,2013-10-08 07:01:00,
2013-10-08 03:06:00,41.3,40.2,30.09,NW,309,1.0,1.0,96,0.00,,,0.00,Wunderground v.1.15,2013-10-08 07:06:00,
2013-10-08 03:11:00,41.2,40.1,30.09,NW,318,1.0,1.0,96,0.00,,,0.00,Wunderground v.1.15,2013-10-08 07:11:00,
2013-10-08 03:16:00,41.1,40.0,30.09,NW,308,1.0,3.0,96,0.00,,,0.00,Wunderground v.1.15,2013-10-08 07:16:00,
2013-10-08 03:21:00,41.0,40.2,30.09,NW,318,0.0,1.0,97,0.00,,,0.00,Wunderground v.1.15,2013-10-08 07:21:00,
2013-10-08 03:26:00,41.1,40.3,30.09,NNW,348,0.0,2.0,97,0.00,,,0.00,Wunderground v.1.15,2013-10-08 07:26:00,
2013-10-08 03:31:00,41.1,40.3,30.09,NNW,342,0.0,0.0,97,0.00,,,0.00,Wunderground v.1.15,2013-10-08 07:31:00,
2013-10-08 03:36:00,40.9,39.8,30.09,NNW,343,0.0,0.0,96,0.00,,,0.00,Wunderground v.1.15,2013-10-08 07:36:00,
2013-10-08 03:41:00,40.7,39.6,30.09,NNW,343,0.0,0.0,96,0.00,,,0.00,Wunderground v.1.15,2013-10-08 07:41:00,
2013-10-08 03:46:00,40.4,39.4,30.10,SE,129,0.0,1.0,96,0.00,,,0.00,Wunderground v.1.15,2013-10-08 07:46:00,
2013-10-08 03:51:00,40.1,39.1,30.10,SE,129,0.0,0.0,96,0.00,,,0.00,Wunderground v.1.15,2013-10-08 07:51:00,
2013-10-08 03:56:00,39.7,38.7,30.10,SE,129,0.0,0.0,96,0.00,,,0.00,Wunderground v.1.15,2013-10-08 07:56:00,
2013-10-08 04:01:00,39.6,38.8,30.10,SE,129,0.0,0.0,97,0.00,,,0.00,Wunderground v.1.15,2013-10-08 08:01:00,
2013-10-08 04:06:00,39.4,38.6,30.11,SE,129,0.0,1.0,97,0.00,,,0.00,Wunderground v.1.15,2013-10-08 08:06:00,
2013-10-08 04:11:00,39.1,38.3,30.11,SE,129,0.0,0.0,97,0.00,,,0.00,Wunderground v.1.15,2013-10-08 08:11:00,
2013-10-08 04:16:00,39.0,38.2,30.11,SE,130,0.0,0.0,97,0.00,,,0.00,Wunderground v.1.15,2013-10-08 08:16:00,
2013-10-08 04:21:00,39.1,38.6,30.12,SE,129,0.0,0.0,98,0.00,,,0.00,Wunderground v.1.15,2013-10-08 08:21:00,
2013-10-08 04:26:00,39.1,38.6,30.12,SE,129,0.0,0.0,98,0.00,,,0.00,Wunderground v.1.15,2013-10-08 08:26:00,
2013-10-08 04:31:00,39.2,38.7,30.12,SE,129,0.0,0.0,98,0.00,,,0.00,Wunderground v.1.15,2013-10-08 08:31:00,
2013-10-08 04:36:00,39.4,38.9,30.12,SE,129,0.0,1.0,98,0.00,,,0.00,Wunderground v.1.15,2013-10-08 08:36:00,
2013-10-08 04:41:00,39.6,39.1,30.13,SE,129,0.0,0.0,98,0.00,,,0.00,Wunderground v.1.15,2013-10-08 08:41:00,
2013-10-08 04:46:00,39.7,39.2,30.12,SE,129,0.0,1.0,98,0.00,,,0.00,Wunderground v.1.15,2013-10-08 08:46:00,
2013-10-08 04:51:00,39.6,39.1,30.12,SE,128,0.0,1.0,98,0.00,,,0.00,Wunderground v.1.15,2013-10-08 08:51:00,
2013-10-08 04:56:00,39.7,39.2,30.13,SE,129,0.0,1.0,98,0.00,,,0.00,Wunderground v.1.15,2013-10-08 08:56:00,
2013-10-08 05:01:00,39.2,38.4,30.13,SE,127,1.0,2.0,97,0.00,,,0.00,Wunderground v.1.15,2013-10-08 09:01:00,
2013-10-08 05:06:00,38.8,38.0,30.14,SE,127,0.0,2.0,97,0.00,,,0.00,Wunderground v.1.15,2013-10-08 09:06:00,
2013-10-08 05:11:00,38.5,37.7,30.14,SE,127,0.0,0.0,97,0.00,,,0.00,Wunderground v.1.15,2013-10-08 09:11:00,
2013-10-08 05:16:00,38.4,37.6,30.14,SE,127,0.0,0.0,97,0.00,,,0.00,Wunderground v.1.15,2013-10-08 09:16:00,
2013-10-08 05:21:00,38.2,37.7,30.15,SE,127,0.0,0.0,98,0.00,,,0.00,Wunderground v.1.15,2013-10-08 09:21:00,
2013-10-08 05:26:00,38.2,37.7,30.15,SE,127,0.0,0.0,98,0.00,,,0.00,Wunderground v.1.15,2013-10-08 09:26:00,
2013-10-08 05:31:00,38.2,37.7,30.15,SE,127,0.0,0.0,98,0.00,,,0.00,Wunderground v.1.15,2013-10-08 09:31:00,
2013-10-08 05:36:00,38.4,37.9,30.15,SE,127,0.0,0.0,98,0.00,,,0.00,Wunderground v.1.15,2013-10-08 09:36:00,
2013-10-08 05:41:00,38.9,38.6,30.15,ESE,123,0.0,0.0,99,0.00,,,0.00,Wunderground v.1.15,2013-10-08 09:41:00,
2013-10-08 05:46:00,39.1,38.8,30.15,WNW,284,0.0,0.0,99,0.00,,,0.00,Wunderground v.1.15,2013-10-08 09:46:00,
2013-10-08 05:51:00,39.5,39.2,30.15,NW,307,1.0,2.0,99,0.00,,,0.00,Wunderground v.1.15,2013-10-08 09:51:00,
2013-10-08 05:56:00,39.7,39.2,30.15,NW,312,1.0,3.0,98,0.00,,,0.00,Wunderground v.1.15,2013-10-08 09:56:00,
2013-10-08 06:01:00,40.2,39.9,30.16,NW,309,1.0,2.0,99,0.00,,,0.01,Wunderground v.1.15,2013-10-08 10:01:00,
2013-10-08 06:06:00,40.5,40.0,30.17,ESE,123,1.0,2.0,98,0.00,,,0.01,Wunderground v.1.15,2013-10-08 10:06:00,
2013-10-08 06:11:00,40.1,39.3,30.17,SE,134,0.0,1.0,97,0.00,,,0.01,Wunderground v.1.15,2013-10-08 10:11:00,
2013-10-08 06:16:00,39.9,39.1,30.17,SE,134,0.0,1.0,97,0.00,,,0.01,Wunderground v.1.15,2013-10-08 10:16:00,
2013-10-08 06:21:00,40.0,39.2,30.17,NW,312,1.0,2.0,97,0.00,,,0.01,Wunderground v.1.15,2013-10-08 10:21:00,
2013-10-08 06:26:00,40.1,39.3,30.17,NW,309,0.0,4.0,97,0.00,,,0.01,Wunderground v.1.15,2013-10-08 10:26:00,
2013-10-08 06:31:00,39.6,38.6,30.17,ESE,107,0.0,1.0,96,0.00,,,0.01,Wunderground v.1.15,2013-10-08 10:31:00,
2013-10-08 06:36:00,39.3,38.3,30.18,ESE,107,0.0,1.0,96,0.00,,,0.01,Wunderground v.1.15,2013-10-08 10:36:00,
2013-10-08 06:41:00,38.9,37.9,30.18,ESE,107,0.0,0.0,96,0.00,,,0.01,Wunderground v.1.15,2013-10-08 10:41:00,
2013-10-08 06:46:00,38.7,37.7,30.18,ESE,108,0.0,0.0,96,0.00,,,0.01,Wunderground v.1.15,2013-10-08 10:46:00,
2013-10-08 06:51:00,38.5,37.7,30.19,ESE,107,0.0,0.0,97,0.00,,,0.01,Wunderground v.1.15,2013-10-08 10:51:00,
2013-10-08 06:56:00,38.3,37.5,30.19,ESE,107,0.0,0.0,97,0.00,,,0.01,Wunderground v.1.15,2013-10-08 10:56:00,
2013-10-08 07:01:00,38.4,37.6,30.19,ESE,105,0.0,0.0,97,0.00,,,0.01,Wunderground v.1.15,2013-10-08 11:01:00,
2013-10-08 07:06:00,38.5,37.7,30.19,ESE,105,0.0,0.0,97,0.00,,,0.01,Wunderground v.1.15,2013-10-08 11:06:00,
2013-10-08 07:11:00,38.4,37.6,30.19,ESE,105,0.0,0.0,97,0.00,,,0.01,Wunderground v.1.15,2013-10-08 11:11:00,
2013-10-08 07:16:00,38.3,37.5,30.19,ESE,105,1.0,1.0,97,0.00,,,0.01,Wunderground v.1.15,2013-10-08 11:16:00,
2013-10-08 07:21:00,38.8,38.3,30.19,NNW,333,0.0,0.0,98,0.00,,,0.01,Wunderground v.1.15,2013-10-08 11:21:00,
2013-10-08 07:26:00,38.6,38.1,30.19,NNW,333,0.0,0.0,98,0.00,,,0.01,Wunderground v.1.15,2013-10-08 11:26:00,
2013-10-08 07:31:00,38.6,38.1,30.19,NNW,333,0.0,0.0,98,0.00,,,0.01,Wunderground v.1.15,2013-10-08 11:31:00,
2013-10-08 07:36:00,38.7,38.2,30.20,NNW,333,0.0,0.0,98,0.00,,,0.01,Wunderground v.1.15,2013-10-08 11:36:00,
2013-10-08 07:41:00,38.6,38.1,30.20,NNW,333,0.0,0.0,98,0.00,,,0.01,Wunderground v.1.15,2013-10-08 11:41:00,
2013-10-08 07:46:00,38.4,37.9,30.20,NNW,333,0.0,0.0,98,0.00,,,0.01,Wunderground v.1.15,2013-10-08 11:46:00,
2013-10-08 07:51:00,38.4,37.9,30.20,NNW,338,0.0,1.0,98,0.00,,,0.01,Wunderground v.1.15,2013-10-08 11:51:00,
2013-10-08 07:56:00,38.6,38.1,30.20,NNW,336,0.0,1.0,98,0.00,,,0.01,Wunderground v.1.15,2013-10-08 11:56:00,
2013-10-08 08:01:00,38.7,38.2,30.20,NNW,338,0.0,0.0,98,0.00,,,0.01,Wunderground v.1.15,2013-10-08 12:01:00,
2013-10-08 08:06:00,38.8,38.3,30.20,NNW,338,0.0,1.0,98,0.00,,,0.01,Wunderground v.1.15,2013-10-08 12:06:00,
2013-10-08 08:11:00,38.8,38.3,30.20,East,96,0.0,0.0,98,0.00,,,0.01,Wunderground v.1.15,2013-10-08 12:11:00,
2013-10-08 08:16:00,38.8,38.3,30.21,SE,129,0.0,1.0,98,0.00,,,0.01,Wunderground v.1.15,2013-10-08 12:16:00,
2013-10-08 08:21:00,39.0,38.5,30.21,SE,129,0.0,1.0,98,0.00,,,0.01,Wunderground v.1.15,2013-10-08 12:21:00,
2013-10-08 08:26:00,39.6,39.3,30.21,ESE,115,0.0,2.0,99,0.00,,,0.01,Wunderground v.1.15,2013-10-08 12:26:00,
2013-10-08 08:31:00,40.2,39.9,30.21,SSE,160,2.0,3.0,99,0.00,,,0.01,Wunderground v.1.15,2013-10-08 12:31:00,
2013-10-08 08:36:00,41.3,41.0,30.22,South,173,0.0,3.0,99,0.00,,,0.01,Wunderground v.1.15,2013-10-08 12:36:00,
2013-10-08 08:41:00,42.3,41.8,30.22,SE,127,1.0,6.0,98,0.00,,,0.01,Wunderground v.1.15,2013-10-08 12:41:00,
2013-10-08 08:46:00,42.7,41.9,30.22,SE,129,2.0,6.0,97,0.00,,,0.01,Wunderground v.1.15,2013-10-08 12:46:00,
2013-10-08 08:51:00,43.0,41.9,30.22,ESE,108,2.0,4.0,96,0.00,,,0.01,Wunderground v.1.15,2013-10-08 12:51:00,
2013-10-08 08:56:00,44.0,42.7,30.22,SE,139,4.0,5.0,95,0.00,,,0.01,Wunderground v.1.15,2013-10-08 12:56:00,
2013-10-08 09:01:00,44.8,42.9,30.22,SE,131,7.0,7.0,93,0.00,,,0.01,Wunderground v.1.15,2013-10-08 13:01:00,
2013-10-08 09:06:00,45.5,43.0,30.23,SE,131,3.0,7.0,91,0.00,,,0.01,Wunderground v.1.15,2013-10-08 13:06:00,
2013-10-08 09:11:00,46.1,43.3,30.23,SSE,152,6.0,6.0,90,0.00,,,0.01,Wunderground v.1.15,2013-10-08 13:11:00,
2013-10-08 09:16:00,46.5,43.1,30.23,ESE,108,1.0,8.0,88,0.00,,,0.01,Wunderground v.1.15,2013-10-08 13:16:00,
2013-10-08 09:21:00,46.8,43.1,30.23,South,169,6.0,6.0,87,0.00,,,0.01,Wunderground v.1.15,2013-10-08 13:21:00,
2013-10-08 09:26:00,47.1,43.1,30.23,SE,138,6.0,7.0,86,0.00,,,0.01,Wunderground v.1.15,2013-10-08 13:26:00,
2013-10-08 09:31:00,47.5,43.2,30.23,NNE,18,2.0,4.0,85,0.00,,,0.01,Wunderground v.1.15,2013-10-08 13:31:00,
2013-10-08 09:36:00,47.6,43.0,30.23,ENE,58,3.0,11.0,84,0.00,,,0.01,Wunderground v.1.15,2013-10-08 13:36:00,
2013-10-08 09:41:00,48.0,43.1,30.23,ESE,104,8.0,9.0,83,0.00,,,0.01,Wunderground v.1.15,2013-10-08 13:41:00,
2013-10-08 09:46:00,48.3,43.1,30.23,ESE,113,2.0,10.0,82,0.00,,,0.01,Wunderground v.1.15,2013-10-08 13:46:00,
2013-10-08 09:51:00,49.0,44.1,30.23,NNE,33,2.0,6.0,83,0.00,,,0.01,Wunderground v.1.15,2013-10-08 13:51:00,
2013-10-08 09:56:00,49.4,43.8,30.23,ESE,104,8.0,9.0,81,0.00,,,0.01,Wunderground v.1.15,2013-10-08 13:56:00,
2013-10-08 10:01:00,49.6,43.4,30.23,East,94,1.0,6.0,79,0.00,,,0.01,Wunderground v.1.15,2013-10-08 14:01:00,
2013-10-08 10:06:00,50.1,43.8,30.23,ESE,117,7.0,8.0,79,0.00,,,0.01,Wunderground v.1.15,2013-10-08 14:06:00,
2013-10-08 10:11:00,50.4,44.1,30.23,NNE,30,3.0,3.0,79,0.00,,,0.01,Wunderground v.1.15,2013-10-08 14:11:00,
2013-10-08 10:16:00,50.4,43.5,30.23,SE,134,5.0,14.0,77,0.00,,,0.01,Wunderground v.1.15,2013-10-08 14:16:00,
2013-10-08 10:21:00,50.3,43.7,30.23,SE,124,3.0,6.0,78,0.00,,,0.01,Wunderground v.1.15,2013-10-08 14:21:00,
2013-10-08 10:26:00,50.2,43.6,30.23,ENE,67,9.0,12.0,78,0.00,,,0.01,Wunderground v.1.15,2013-10-08 14:26:00,
2013-10-08 10:31:00,50.4,44.1,30.23,SSW,198,6.0,8.0,79,0.00,,,0.01,Wunderground v.1.15,2013-10-08 14:31:00,
2013-10-08 10:36:00,50.6,44.0,30.23,SSW,195,2.0,13.0,78,0.00,,,0.01,Wunderground v.1.15,2013-10-08 14:36:00,
2013-10-08 10:41:00,51.2,44.9,30.23,North,358,1.0,4.0,79,0.00,,,0.01,Wunderground v.1.15,2013-10-08 14:41:00,
2013-10-08 10:46:00,51.4,43.7,30.23,SSE,155,6.0,13.0,75,0.00,,,0.01,Wunderground v.1.15,2013-10-08 14:46:00,
2013-10-08 10:51:00,51.0,43.4,30.23,South,170,1.0,8.0,75,0.00,,,0.01,Wunderground v.1.15,2013-10-08 14:51:00,
2013-10-08 10:56:00,51.2,43.5,30.23,ENE,74,3.0,9.0,75,0.00,,,0.01,Wunderground v.1.15,2013-10-08 14:56:00,
2013-10-08 11:01:00,51.3,43.6,30.23,ESE,122,8.0,11.0,75,0.00,,,0.01,Wunderground v.1.15,2013-10-08 15:01:00,
2013-10-08 11:06:00,51.2,43.2,30.23,ESE,122,6.0,12.0,74,0.00,,,0.01,Wunderground v.1.15,2013-10-08 15:06:00,
2013-10-08 11:11:00,51.8,44.5,30.23,SE,130,13.0,13.0,76,0.00,,,0.01,Wunderground v.1.15,2013-10-08 15:11:00,
2013-10-08 11:16:00,52.5,44.1,30.24,SE,141,16.0,17.0,73,0.00,,,0.01,Wunderground v.1.15,2013-10-08 15:16:00,
2013-10-08 11:21:00,52.2,43.1,30.24,ESE,117,13.0,13.0,71,0.00,,,0.01,Wunderground v.1.15,2013-10-08 15:21:00,
2013-10-08 11:26:00,52.3,42.8,30.24,SSW,198,9.0,18.0,70,0.00,,,0.01,Wunderground v.1.15,2013-10-08 15:26:00,
2013-10-08 11:31:00,52.1,43.0,30.24,East,94,6.0,10.0,71,0.00,,,0.01,Wunderground v.1.15,2013-10-08 15:31:00,
2013-10-08 11:36:00,52.5,43.7,30.24,SE,136,11.0,13.0,72,0.00,,,0.01,Wunderground v.1.15,2013-10-08 15:36:00,
2013-10-08 11:41:00,52.6,43.1,30.24,SSE,167,6.0,9.0,70,0.00,,,0.01,Wunderground v.1.15,2013-10-08 15:41:00,
2013-10-08 11:46:00,52.8,43.3,30.24,SE,141,8.0,15.0,70,0.00,,,0.01,Wunderground v.1.15,2013-10-08 15:46:00,
2013-10-08 11:51:00,53.0,43.1,30.24,ESE,121,5.0,9.0,69,0.00,,,0.01,Wunderground v.1.15,2013-10-08 15:51:00,
2013-10-08 11:56:00,53.3,43.8,30.24,SE,133,6.0,11.0,70,0.00,,,0.01,Wunderground v.1.15,2013-10-08 15:56:00,
2013-10-08 12:01:00,53.8,44.2,30.24,ESE,112,7.0,11.0,70,0.00,,,0.01,Wunderground v.1.15,2013-10-08 16:01:00,
2013-10-08 12:06:00,54.0,45.2,30.24,ESE,117,2.0,13.0,72,0.00,,,0.01,Wunderground v.1.15,2013-10-08 16:06:00,
2013-10-08 12:11:00,54.6,45.4,30.24,ENE,77,10.0,10.0,71,0.00,,,0.01,Wunderground v.1.15,2013-10-08 16:11:00,
2013-10-08 12:16:00,54.8,45.2,30.24,ESE,122,2.0,10.0,70,0.00,,,0.01,Wunderground v.1.15,2013-10-08 16:16:00,
2013-10-08 12:21:00,54.9,44.1,30.24,SE,131,11.0,11.0,67,0.00,,,0.01,Wunderground v.1.15,2013-10-08 16:21:00,
2013-10-08 12:26:00,54.8,44.4,30.25,ESE,120,6.0,13.0,68,0.00,,,0.01,Wunderground v.1.15,2013-10-08 16:26:00,
2013-10-08 12:31:00,54.5,43.8,30.24,SE,145,4.0,9.0,67,0.00,,,0.01,Wunderground v.1.15,2013-10-08 16:31:00,
2013-10-08 12:36:00,54.8,44.4,30.24,SE,131,9.0,13.0,68,0.00,,,0.01,Wunderground v.1.15,2013-10-08 16:36:00,
2013-10-08 12:41:00,55.1,44.7,30.24,ESE,116,1.0,10.0,68,0.00,,,0.01,Wunderground v.1.15,2013-10-08 16:41:00,
2013-10-08 12:46:00,55.8,45.0,30.24,SE,139,7.0,10.0,67,0.00,,,0.01,Wunderground v.1.15,2013-10-08 16:46:00,
2013-10-08 12:51:00,55.9,44.3,30.24,East,79,3.0,8.0,65,0.00,,,0.01,Wunderground v.1.15,2013-10-08 16:51:00,
2013-10-08 12:56:00,56.2,45.8,30.24,SSE,150,9.0,10.0,68,0.00,,,0.01,Wunderground v.1.15,2013-10-08 16:56:00,
2013-10-08 13:01:00,56.3,45.1,30.24,SE,124,7.0,12.0,66,0.00,,,0.01,Wunderground v.1.15,2013-10-08 17:01:00,
2013-10-08 13:06:00,56.5,45.7,30.24,East,90,3.0,12.0,67,0.00,,,0.01,Wunderground v.1.15,2013-10-08 17:06:00,
2013-10-08 13:11:00,56.9,46.1,30.23,ESE,103,6.0,6.0,67,0.00,,,0.01,Wunderground v.1.15,2013-10-08 17:11:00,
2013-10-08 13:16:00,57.0,45.7,30.24,East,81,10.0,12.0,66,0.00,,,0.01,Wunderground v.1.15,2013-10-08 17:16:00,
2013-10-08 13:21:00,56.4,44.8,30.23,SE,135,1.0,7.0,65,0.00,,,0.01,Wunderground v.1.15,2013-10-08 17:21:00,
2013-10-08 13:26:00,56.7,45.9,30.23,ESE,107,4.0,7.0,67,0.00,,,0.01,Wunderground v.1.15,2013-10-08 17:26:00,
2013-10-08 13:31:00,56.7,45.1,30.23,SE,135,2.0,4.0,65,0.00,,,0.01,Wunderground v.1.15,2013-10-08 17:31:00,
2013-10-08 13:36:00,56.7,45.1,30.22,East,89,5.0,10.0,65,0.00,,,0.01,Wunderground v.1.15,2013-10-08 17:36:00,
2013-10-08 13:41:00,57.1,45.4,30.22,NE,37,2.0,6.0,65,0.00,,,0.01,Wunderground v.1.15,2013-10-08 17:41:00,
2013-10-08 13:46:00,57.9,46.6,30.22,SE,128,6.0,6.0,66,0.00,,,0.01,Wunderground v.1.15,2013-10-08 17:46:00,
2013-10-08 13:51:00,58.3,46.2,30.22,ESE,113,2.0,4.0,64,0.00,,,0.01,Wunderground v.1.15,2013-10-08 17:51:00,
2013-10-08 13:56:00,58.0,45.5,30.22,ESE,115,6.0,6.0,63,0.00,,,0.01,Wunderground v.1.15,2013-10-08 17:56:00,
2013-10-08 14:01:00,58.1,45.6,30.21,East,79,5.0,5.0,63,0.00,,,0.01,Wunderground v.1.15,2013-10-08 18:01:00,
2013-10-08 14:06:00,58.0,46.3,30.21,ESE,105,6.0,8.0,65,0.00,,,0.01,Wunderground v.1.15,2013-10-08 18:06:00,
2013-10-08 14:11:00,58.0,45.0,30.21,ESE,117,9.0,13.0,62,0.00,,,0.01,Wunderground v.1.15,2013-10-08 18:11:00,
2013-10-08 14:16:00,57.7,45.2,30.21,ESE,118,7.0,13.0,63,0.00,,,0.01,Wunderground v.1.15,2013-10-08 18:16:00,
2013-10-08 14:21:00,57.5,45.8,30.20,SE,135,5.0,8.0,65,0.00,,,0.01,Wunderground v.1.15,2013-10-08 18:21:00,
2013-10-08 14:26:00,57.9,46.2,30.20,ESE,117,5.0,10.0,65,0.00,,,0.01,Wunderground v.1.15,2013-10-08 18:26:00,
2013-10-08 14:31:00,58.0,45.5,30.20,SSW,198,2.0,6.0,63,0.00,,,0.01,Wunderground v.1.15,2013-10-08 18:31:00,
2013-10-08 14:36:00,58.3,46.2,30.20,East,95,1.0,8.0,64,0.00,,,0.01,Wunderground v.1.15,2013-10-08 18:36:00,
2013-10-08 14:41:00,58.6,46.5,30.21,NE,48,2.0,6.0,64,0.00,,,0.01,Wunderground v.1.15,2013-10-08 18:41:00,
2013-10-08 14:46:00,58.7,45.7,30.20,NNE,20,1.0,6.0,62,0.00,,,0.01,Wunderground v.1.15,2013-10-08 18:46:00,
2013-10-08 14:52:00,58.6,46.5,30.20,East,81,5.0,9.0,64,0.00,,,0.01,Wunderground v.1.15,2013-10-08 18:52:00,
2013-10-08 14:57:00,58.7,46.5,30.20,SE,135,4.0,9.0,64,0.00,,,0.01,Wunderground v.1.15,2013-10-08 18:57:00,
2013-10-08 15:02:00,59.0,46.8,30.20,ENE,74,4.0,5.0,64,0.00,,,0.01,Wunderground v.1.15,2013-10-08 19:02:00,
2013-10-08 15:07:00,59.6,47.4,30.21,SW,231,4.0,7.0,64,0.00,,,0.01,Wunderground v.1.15,2013-10-08 19:07:00,
2013-10-08 15:12:00,59.5,45.2,30.20,East,94,2.0,8.0,59,0.00,,,0.01,Wunderground v.1.15,2013-10-08 19:12:00,
2013-10-08 15:17:00,59.9,45.5,30.20,SE,144,4.0,8.0,59,0.00,,,0.01,Wunderground v.1.15,2013-10-08 19:17:00,
2013-10-08 15:22:00,60.2,45.8,30.20,NNE,24,3.0,7.0,59,0.00,,,0.01,Wunderground v.1.15,2013-10-08 19:22:00,
2013-10-08 15:27:00,59.7,45.3,30.20,North,354,1.0,10.0,59,0.00,,,0.01,Wunderground v.1.15,2013-10-08 19:27:00,
2013-10-08 15:32:00,59.7,45.8,30.20,SE,134,2.0,4.0,60,0.00,,,0.01,Wunderground v.1.15,2013-10-08 19:32:00,
2013-10-08 15:37:00,60.1,46.2,30.20,NNE,15,2.0,4.0,60,0.00,,,0.01,Wunderground v.1.15,2013-10-08 19:37:00,
2013-10-08 15:42:00,60.1,46.6,30.21,ESE,108,6.0,6.0,61,0.00,,,0.01,Wunderground v.1.15,2013-10-08 19:42:00,
2013-10-08 15:47:00,60.2,46.7,30.21,SE,144,6.0,6.0,61,0.00,,,0.01,Wunderground v.1.15,2013-10-08 19:47:00,
2013-10-08 15:52:00,60.2,46.3,30.21,NE,44,3.0,10.0,60,0.00,,,0.01,Wunderground v.1.15,2013-10-08 19:52:00,
2013-10-08 15:57:00,60.1,45.7,30.21,SE,145,7.0,10.0,59,0.00,,,0.01,Wunderground v.1.15,2013-10-08 19:57:00,
2013-10-08 16:02:00,59.7,45.8,30.21,ESE,117,6.0,11.0,60,0.00,,,0.01,Wunderground v.1.15,2013-10-08 20:02:00,
2013-10-08 16:07:00,59.9,46.8,30.21,SSE,160,0.0,11.0,62,0.00,,,0.01,Wunderground v.1.15,2013-10-08 20:07:00,
2013-10-08 16:12:00,60.5,46.5,30.21,SE,126,4.0,4.0,60,0.00,,,0.01,Wunderground v.1.15,2013-10-08 20:12:00,
2013-10-08 16:17:00,60.7,46.7,30.21,NNE,25,5.0,6.0,60,0.00,,,0.01,Wunderground v.1.15,2013-10-08 20:17:00,
2013-10-08 16:22:00,60.1,45.7,30.21,NNW,328,2.0,5.0,59,0.00,,,0.01,Wunderground v.1.15,2013-10-08 20:22:00,
2013-10-08 16:27:00,60.0,46.5,30.21,NNW,344,1.0,7.0,61,0.00,,,0.01,Wunderground v.1.15,2013-10-08 20:27:00,
2013-10-08 16:32:00,59.6,46.1,30.20,ESE,107,1.0,3.0,61,0.00,,,0.01,Wunderground v.1.15,2013-10-08 20:32:00,
2013-10-08 16:37:00,59.5,46.5,30.20,NNE,15,0.0,4.0,62,0.00,,,0.01,Wunderground v.1.15,2013-10-08 20:37:00,
2013-10-08 16:42:00,59.5,46.9,30.20,NNE,33,0.0,3.0,63,0.00,,,0.01,Wunderground v.1.15,2013-10-08 20:42:00,
2013-10-08 16:47:00,59.7,47.5,30.20,NNE,13,1.0,3.0,64,0.00,,,0.01,Wunderground v.1.15,2013-10-08 20:47:00,
2013-10-08 16:52:00,60.4,46.9,30.19,SSE,163,1.0,3.0,61,0.00,,,0.01,Wunderground v.1.15,2013-10-08 20:52:00,
2013-10-08 16:57:00,60.7,47.2,30.19,NE,41,2.0,3.0,61,0.00,,,0.01,Wunderground v.1.15,2013-10-08 20:57:00,
2013-10-08 17:02:00,60.5,47.4,30.20,ESE,118,1.0,2.0,62,0.00,,,0.01,Wunderground v.1.15,2013-10-08 21:02:00,
2013-10-08 17:07:00,60.8,46.8,30.20,SE,129,0.0,2.0,60,0.00,,,0.01,Wunderground v.1.15,2013-10-08 21:07:00,
2013-10-08 17:12:00,61.0,47.0,30.19,NNW,337,3.0,4.0,60,0.00,,,0.01,Wunderground v.1.15,2013-10-08 21:12:00,
2013-10-08 17:17:00,61.0,46.6,30.20,ESE,104,3.0,6.0,59,0.00,,,0.01,Wunderground v.1.15,2013-10-08 21:17:00,
2013-10-08 17:22:00,61.0,47.0,30.20,ENE,66,1.0,3.0,60,0.00,,,0.01,Wunderground v.1.15,2013-10-08 21:22:00,
2013-10-08 17:27:00,60.9,46.9,30.19,NE,56,1.0,3.0,60,0.00,,,0.01,Wunderground v.1.15,2013-10-08 21:27:00,
2013-10-08 17:32:00,60.8,46.8,30.19,NNE,24,2.0,4.0,60,0.00,,,0.01,Wunderground v.1.15,2013-10-08 21:32:00,
2013-10-08 17:37:00,60.9,46.5,30.19,NNE,33,1.0,4.0,59,0.00,,,0.01,Wunderground v.1.15,2013-10-08 21:37:00,
2013-10-08 17:42:00,60.8,45.5,30.19,East,99,2.0,3.0,57,0.00,,,0.01,Wunderground v.1.15,2013-10-08 21:42:00,
2013-10-08 17:47:00,60.6,45.3,30.20,ESE,121,0.0,3.0,57,0.00,,,0.01,Wunderground v.1.15,2013-10-08 21:47:00,
2013-10-08 17:52:00,60.7,45.8,30.20,East,97,0.0,1.0,58,0.00,,,0.01,Wunderground v.1.15,2013-10-08 21:52:00,
2013-10-08 17:57:00,60.9,45.6,30.20,NNE,33,0.0,3.0,57,0.00,,,0.01,Wunderground v.1.15,2013-10-08 21:57:00,
2013-10-08 18:02:00,60.8,45.5,30.20,SE,129,0.0,1.0,57,0.00,,,0.01,Wunderground v.1.15,2013-10-08 22:02:00,
2013-10-08 18:07:00,60.5,45.6,30.20,ESE,122,1.0,3.0,58,0.00,,,0.01,Wunderground v.1.15,2013-10-08 22:07:00,
2013-10-08 18:12:00,60.1,45.3,30.20,NE,35,1.0,2.0,58,0.00,,,0.01,Wunderground v.1.15,2013-10-08 22:12:00,
2013-10-08 18:17:00,59.9,45.5,30.20,NE,38,0.0,2.0,59,0.00,,,0.01,Wunderground v.1.15,2013-10-08 22:17:00,
2013-10-08 18:22:00,59.7,45.8,30.20,SSE,153,0.0,1.0,60,0.00,,,0.01,Wunderground v.1.15,2013-10-08 22:22:00,
2013-10-08 18:27:00,59.3,45.8,30.21,ESE,117,0.0,2.0,61,0.00,,,0.01,Wunderground v.1.15,2013-10-08 22:27:00,
2013-10-08 18:32:00,58.7,45.3,30.21,SE,126,1.0,2.0,61,0.00,,,0.01,Wunderground v.1.15,2013-10-08 22:32:00,
2013-10-08 18:37:00,57.8,45.3,30.21,ESE,117,1.0,2.0,63,0.00,,,0.01,Wunderground v.1.15,2013-10-08 22:37:00,
2013-10-08 18:42:00,57.0,44.9,30.21,SE,126,0.0,1.0,64,0.00,,,0.01,Wunderground v.1.15,2013-10-08 22:42:00,
2013-10-08 18:47:00,56.4,45.2,30.21,ESE,120,1.0,4.0,66,0.00,,,0.01,Wunderground v.1.15,2013-10-08 22:47:00,
2013-10-08 18:52:00,55.8,45.0,30.21,ESE,122,0.0,1.0,67,0.00,,,0.01,Wunderground v.1.15,2013-10-08 22:52:00,
2013-10-08 18:57:00,55.4,44.6,30.21,ESE,110,0.0,2.0,67,0.00,,,0.01,Wunderground v.1.15,2013-10-08 22:57:00,
2013-10-08 19:02:00,54.8,44.4,30.21,ESE,110,0.0,0.0,68,0.00,,,0.01,Wunderground v.1.15,2013-10-08 23:02:00,
2013-10-08 19:07:00,54.2,45.0,30.21,ESE,110,0.0,0.0,71,0.00,,,0.01,Wunderground v.1.15,2013-10-08 23:07:00,
2013-10-08 19:12:00,53.4,46.0,30.21,ESE,110,0.0,0.0,76,0.00,,,0.01,Wunderground v.1.15,2013-10-08 23:12:00,
2013-10-08 19:17:00,52.5,45.5,30.21,ESE,110,0.0,0.0,77,0.00,,,0.01,Wunderground v.1.15,2013-10-08 23:17:00,
2013-10-08 19:22:00,51.7,45.1,30.21,ESE,110,0.0,0.0,78,0.00,,,0.01,Wunderground v.1.15,2013-10-08 23:22:00,
2013-10-08 19:27:00,51.0,44.4,30.21,ESE,110,0.0,0.0,78,0.00,,,0.01,Wunderground v.1.15,2013-10-08 23:27:00,
2013-10-08 19:32:00,50.6,44.7,30.20,ESE,110,0.0,0.0,80,0.00,,,0.01,Wunderground v.1.15,2013-10-08 23:32:00,
2013-10-08 19:37:00,50.4,44.5,30.21,ESE,110,0.0,0.0,80,0.00,,,0.01,Wunderground v.1.15,2013-10-08 23:37:00,
2013-10-08 19:42:00,49.9,44.0,30.21,ESE,110,0.0,0.0,80,0.00,,,0.01,Wunderground v.1.15,2013-10-08 23:42:00,
2013-10-08 19:47:00,49.5,43.9,30.21,ESE,110,0.0,0.0,81,0.00,,,0.01,Wunderground v.1.15,2013-10-08 23:47:00,
2013-10-08 19:52:00,49.5,44.2,30.21,ESE,110,0.0,0.0,82,0.00,,,0.01,Wunderground v.1.15,2013-10-08 23:52:00,
2013-10-08 19:57:00,49.5,44.6,30.21,ESE,110,0.0,0.0,83,0.00,,,0.01,Wunderground v.1.15,2013-10-08 23:57:00,
2013-10-08 20:02:00,49.2,44.3,30.21,ESE,110,0.0,0.0,83,0.00,,,0.01,Wunderground v.1.15,2013-10-09 00:02:00,
2013-10-08 20:07:00,48.9,44.3,30.21,ESE,110,0.0,0.0,84,0.00,,,0.01,Wunderground v.1.15,2013-10-09 00:07:00,
2013-10-08 20:12:00,48.5,44.2,30.21,ESE,110,0.0,0.0,85,0.00,,,0.01,Wunderground v.1.15,2013-10-09 00:12:00,
2013-10-08 20:17:00,48.2,43.9,30.21,ESE,110,0.0,0.0,85,0.00,,,0.01,Wunderground v.1.15,2013-10-09 00:17:00,
2013-10-08 20:22:00,47.8,43.8,30.22,ESE,110,0.0,0.0,86,0.00,,,0.01,Wunderground v.1.15,2013-10-09 00:22:00,
2013-10-08 20:27:00,47.6,43.9,30.22,ESE,120,0.0,0.0,87,0.00,,,0.01,Wunderground v.1.15,2013-10-09 00:27:00,
2013-10-08 20:32:00,47.9,44.2,30.22,SE,136,0.0,2.0,87,0.00,,,0.01,Wunderground v.1.15,2013-10-09 00:32:00,
2013-10-08 20:37:00,48.1,44.1,30.22,SE,132,0.0,2.0,86,0.00,,,0.01,Wunderground v.1.15,2013-10-09 00:37:00,
2013-10-08 20:42:00,48.1,44.1,30.23,SE,136,0.0,1.0,86,0.00,,,0.01,Wunderground v.1.15,2013-10-09 00:42:00,
2013-10-08 20:47:00,48.5,44.5,30.23,SE,134,0.0,3.0,86,0.00,,,0.01,Wunderground v.1.15,2013-10-09 00:47:00,
2013-10-08 20:52:00,48.7,44.4,30.23,SE,129,0.0,0.0,85,0.00,,,0.01,Wunderground v.1.15,2013-10-09 00:52:00,
2013-10-08 20:57:00,48.5,44.2,30.23,South,173,0.0,0.0,85,0.00,,,0.01,Wunderground v.1.15,2013-10-09 00:57:00,
2013-10-08 21:02:00,48.7,44.1,30.23,SSE,148,0.0,1.0,84,0.00,,,0.01,Wunderground v.1.15,2013-10-09 01:02:00,
2013-10-08 21:07:00,48.8,44.2,30.23,SE,131,0.0,2.0,84,0.00,,,0.01,Wunderground v.1.15,2013-10-09 01:07:00,
2013-10-08 21:12:00,48.7,44.1,30.23,SE,129,1.0,1.0,84,0.00,,,0.01,Wunderground v.1.15,2013-10-09 01:12:00,
2013-10-08 21:17:00,48.7,44.1,30.23,SE,141,3.0,3.0,84,0.00,,,0.01,Wunderground v.1.15,2013-10-09 01:17:00,
2013-10-08 21:22:00,48.6,44.0,30.23,ESE,120,2.0,3.0,84,0.00,,,0.01,Wunderground v.1.15,2013-10-09 01:22:00,
2013-10-08 21:27:00,48.5,43.9,30.24,ESE,118,1.0,3.0,84,0.00,,,0.01,Wunderground v.1.15,2013-10-09 01:27:00,
2013-10-08 21:32:00,48.8,44.2,30.24,ESE,115,2.0,3.0,84,0.00,,,0.01,Wunderground v.1.15,2013-10-09 01:32:00,
2013-10-08 21:37:00,48.9,44.0,30.24,SE,136,2.0,4.0,83,0.00,,,0.01,Wunderground v.1.15,2013-10-09 01:37:00,
2013-10-08 21:42:00,49.1,44.2,30.24,SE,136,3.0,4.0,83,0.00,,,0.01,Wunderground v.1.15,2013-10-09 01:42:00,
2013-10-08 21:47:00,49.2,44.3,30.24,SE,146,3.0,4.0,83,0.00,,,0.01,Wunderground v.1.15,2013-10-09 01:47:00,
2013-10-08 21:52:00,49.4,44.1,30.24,SE,128,3.0,7.0,82,0.00,,,0.01,Wunderground v.1.15,2013-10-09 01:52:00,
2013-10-08 21:57:00,49.3,44.0,30.24,SE,128,3.0,7.0,82,0.00,,,0.01,Wunderground v.1.15,2013-10-09 01:57:00,
2013-10-08 22:02:00,49.2,43.9,30.24,SE,132,0.0,3.0,82,0.00,,,0.01,Wunderground v.1.15,2013-10-09 02:02:00,
2013-10-08 22:07:00,49.0,43.7,30.24,SE,146,0.0,4.0,82,0.00,,,0.01,Wunderground v.1.15,2013-10-09 02:07:00,
2013-10-08 22:12:00,48.5,43.6,30.24,SE,139,0.0,1.0,83,0.00,,,0.01,Wunderground v.1.15,2013-10-09 02:12:00,
2013-10-08 22:17:00,48.2,43.6,30.24,SE,136,0.0,1.0,84,0.00,,,0.01,Wunderground v.1.15,2013-10-09 02:17:00,
2013-10-08 22:22:00,48.0,43.7,30.24,SSE,150,0.0,3.0,85,0.00,,,0.01,Wunderground v.1.15,2013-10-09 02:22:00,
2013-10-08 22:27:00,48.0,43.7,30.24,ESE,108,1.0,4.0,85,0.00,,,0.01,Wunderground v.1.15,2013-10-09 02:27:00,
2013-10-08 22:32:00,48.0,43.7,30.24,SSE,148,0.0,1.0,85,0.00,,,0.01,Wunderground v.1.15,2013-10-09 02:32:00,
2013-10-08 22:37:00,47.9,43.6,30.24,SE,141,1.0,3.0,85,0.00,,,0.01,Wunderground v.1.15,2013-10-09 02:37:00,
2013-10-08 22:42:00,48.2,43.9,30.24,SE,131,1.0,4.0,85,0.00,,,0.01,Wunderground v.1.15,2013-10-09 02:42:00,
2013-10-08 22:47:00,48.3,44.0,30.24,ESE,115,4.0,6.0,85,0.00,,,0.01,Wunderground v.1.15,2013-10-09 02:47:00,
2013-10-08 22:52:00,48.3,44.0,30.24,SE,130,2.0,4.0,85,0.00,,,0.01,Wunderground v.1.15,2013-10-09 02:52:00,
2013-10-08 22:57:00,48.4,44.1,30.24,SE,127,5.0,6.0,85,0.00,,,0.01,Wunderground v.1.15,2013-10-09 02:57:00,
2013-10-08 23:02:00,48.4,44.1,30.24,SE,145,3.0,7.0,85,0.00,,,0.01,Wunderground v.1.15,2013-10-09 03:02:00,
2013-10-08 23:07:00,48.4,44.1,30.24,SE,136,6.0,7.0,85,0.00,,,0.01,Wunderground v.1.15,2013-10-09 03:07:00,
2013-10-08 23:12:00,48.3,44.0,30.24,SE,125,8.0,8.0,85,0.00,,,0.01,Wunderground v.1.15,2013-10-09 03:12:00,
2013-10-08 23:17:00,48.3,44.0,30.24,ESE,118,5.0,10.0,85,0.00,,,0.01,Wunderground v.1.15,2013-10-09 03:17:00,
2013-10-08 23:22:00,48.2,43.9,30.24,SE,131,3.0,9.0,85,0.00,,,0.01,Wunderground v.1.15,2013-10-09 03:22:00,
2013-10-08 23:27:00,48.1,44.1,30.24,ESE,121,2.0,9.0,86,0.00,,,0.01,Wunderground v.1.15,2013-10-09 03:27:00,
2013-10-08 23:32:00,47.9,43.9,30.24,ESE,122,5.0,7.0,86,0.00,,,0.01,Wunderground v.1.15,2013-10-09 03:32:00,
2013-10-08 23:37:00,47.7,43.7,30.24,ESE,122,4.0,7.0,86,0.00,,,0.01,Wunderground v.1.15,2013-10-09 03:37:00,
2013-10-08 23:42:00,47.6,43.9,30.24,East,91,3.0,6.0,87,0.00,,,0.01,Wunderground v.1.15,2013-10-09 03:42:00,
2013-10-08 23:47:00,47.4,43.7,30.24,ESE,103,3.0,6.0,87,0.00,,,0.01,Wunderground v.1.15,2013-10-09 03:47:00,
2013-10-08 23:52:00,47.3,43.6,30.24,SE,140,3.0,5.0,87,0.00,,,0.01,Wunderground v.1.15,2013-10-09 03:52:00,
2013-10-08 23:57:00,47.1,43.7,30.24,SE,129,2.0,5.0,88,0.00,,,0.01,Wunderground v.1.15,2013-10-09 03:57:00,